Leipsic, Ohio
Current Conditions -  °F | °C
As of 6:02 PM on Thursday 23 Oct 2014 (Local Time) from KFDY Reporting Station
Haze Haze  
Wind Chill: 55°   Ceiling: Unl
Heat Index: 55°   Visibility: 5mi
Dew Point: 39°   Wind: 0mph
Humidity: 55%   Direction: NA
Pressure: 30.14"   Gusts: NA
Location:  41.1°N, 83.98°W
Report Text: KFDY 232202Z AUTO 00000KT 5SM HZ CLR 13/04 A3014 RMK AO2 T01280039
Loading
Personal Weather Stations






























Interactive Weather Map
Tropical Storm Tracking
New forecast layout! Learn more

10-Day Weather Forecast

Advertisements
Track Severe Weather on mobile